Time;durP1;ratioP1;P1;durP2;ratioP2;P2;SDS_P1;SDS_P2;PMS_P1;PMS_P2;Temp;Humidity;BMP_temperature;BMP_pressure;BME280_temperature;BME280_humidity;BME280_pressure;Samples;Min_cycle;Max_cycle;Signal;HPM_P1;HPM_P2
2023/06/25 00:02:11;;;;;;;12.88;10.18;;;18.20;97.20;;;;;;4789001;29;20086;-80
2023/06/25 00:04:37;;;;;;;12.43;9.10;;;;;;;;;;4774276;29;20093;-80
2023/06/25 00:07:03;;;;;;;16.30;9.13;;;18.30;97.40;;;;;;4789021;29;20055;-81
2023/06/25 00:09:29;;;;;;;14.45;9.90;;;;;;;;;;4788658;29;20051;-82
2023/06/25 00:11:55;;;;;;;13.52;10.57;;;;;;;;;;4805111;29;20055;-80
2023/06/25 00:14:21;;;;;;;14.90;9.77;;;18.10;97.50;;;;;;4805298;29;20122;-81
2023/06/25 00:16:46;;;;;;;16.27;10.43;;;18.30;97.30;;;;;;4805321;29;20429;-80
2023/06/25 00:19:13;;;;;;;12.52;9.50;;;;;;;;;;4773835;29;20458;-80
2023/06/25 00:21:41;;;;;;;15.70;10.63;;;;;;;;;;4774336;29;20073;-82
2023/06/25 00:24:07;;;;;;;12.48;10.18;;;;;;;;;;4789857;29;20461;-85
2023/06/25 00:26:32;;;;;;;14.43;10.75;;;18.20;97.50;;;;;;4788812;29;20062;-80
2023/06/25 00:28:58;;;;;;;11.25;9.52;;;18.30;97.30;;;;;;4788695;29;20055;-80
2023/06/25 00:31:24;;;;;;;12.90;9.32;;;;;;;;;;4758912;29;20112;-83
2023/06/25 00:33:50;;;;;;;13.10;10.52;;;;;;;;;;4759470;29;20043;-81
2023/06/25 00:36:16;;;;;;;12.13;9.77;;;;;;;;;;4774085;29;20492;-79
2023/06/25 00:38:42;;;;;;;9.52;8.52;;;;;;;;;;4788573;29;20043;-81
2023/06/25 00:41:10;;;;;;;14.77;9.60;;;17.90;96.10;;;;;;4773826;29;20043;-80
2023/06/25 00:43:40;;;;;;;12.18;8.93;;;;;;;;;;4773724;29;20063;-80
2023/06/25 00:46:12;;;;;;;12.02;10.30;;;17.90;96.00;;;;;;4774219;29;20065;-81
2023/06/25 00:48:39;;;;;;;19.08;9.30;;;18.00;98.00;;;;;;4775520;29;20111;-88
2023/06/25 00:51:05;;;;;;;12.75;10.43;;;;;;;;;;4789656;29;20058;-90
2023/06/25 00:53:36;;;;;;;13.68;10.60;;;17.70;96.90;;;;;;4774552;29;20047;-88
2023/06/25 00:56:03;;;;;;;13.38;10.02;;;17.80;98.40;;;;;;4789329;29;20062;-87
2023/06/25 00:58:29;;;;;;;13.98;9.70;;;;;;;;;;4760182;29;20051;-86
2023/06/25 01:00:59;;;;;;;18.08;11.38;;;17.80;97.20;;;;;;4774472;29;20142;-89
2023/06/25 01:03:30;;;;;;;15.27;10.48;;;17.70;97.50;;;;;;4789736;29;20493;-86
2023/06/25 01:06:08;;;;;;;14.85;11.10;;;17.50;99.20;;;;;;4789745;29;20086;-88
2023/06/25 01:08:36;;;;;;;13.50;11.02;;;17.70;97.90;;;;;;4774434;29;20078;-83
2023/06/25 01:11:03;;;;;;;12.55;10.13;;;;;;;;;;4788974;29;20109;-85
2023/06/25 01:13:29;;;;;;;14.10;10.40;;;;;;;;;;4789137;29;20078;-88
2023/06/25 01:15:55;;;;;;;9.25;8.25;;;;;;;;;;4789571;29;20456;-82
2023/06/25 01:18:22;;;;;;;11.55;8.02;;;;;;;;;;4774129;29;20051;-84
2023/06/25 01:20:51;;;;;;;13.00;7.72;;;17.60;98.20;;;;;;4761642;29;20054;-88
2023/06/25 01:23:17;;;;;;;6.95;6.25;;;17.50;99.60;;;;;;4791601;29;20059;-83
2023/06/25 01:25:48;;;;;;;6.28;5.10;;;;;;;;;;4776574;29;20055;-86
2023/06/25 01:28:14;;;;;;;7.95;7.10;;;;;;;;;;4776815;29;20053;-84
2023/06/25 01:30:41;;;;;;;12.93;8.90;;;;;;;;;;4776563;29;20058;-82
2023/06/25 01:33:07;;;;;;;11.98;8.80;;;;;;;;;;4776623;29;20137;-82
2023/06/25 01:35:33;;;;;;;11.02;7.97;;;;;;;;;;4776403;29;20192;-85
2023/06/25 01:38:00;;;;;;;12.48;9.05;;;;;;;;;;4776338;29;20062;-85
2023/06/25 01:40:26;;;;;;;10.02;8.50;;;;;;;;;;4776610;29;20418;-85
2023/06/25 01:42:52;;;;;;;10.73;9.32;;;;;;;;;;4791563;29;20140;-82
2023/06/25 01:45:19;;;;;;;12.02;9.68;;;;;;;;;;4791183;29;20534;-79
2023/06/25 01:47:45;;;;;;;13.60;10.50;;;17.20;99.90;;;;;;4791139;29;20047;-79
2023/06/25 01:50:11;;;;;;;11.65;9.45;;;;;;;;;;4777318;29;20151;-79
2023/06/25 01:52:38;;;;;;;13.13;10.07;;;17.40;99.90;;;;;;4761684;29;20500;-79
2023/06/25 01:55:04;;;;;;;11.77;9.77;;;17.20;99.90;;;;;;4776879;29;20145;-82
2023/06/25 01:57:30;;;;;;;13.65;9.45;;;;;;;;;;4762068;29;20454;-83
2023/06/25 01:59:56;;;;;;;13.45;10.95;;;;;;;;;;4791014;29;20097;-84
2023/06/25 02:02:22;;;;;;;12.88;9.48;;;;;;;;;;4776283;29;20053;-85
2023/06/25 02:04:48;;;;;;;12.70;8.68;;;;;;;;;;4790844;29;20051;-83
2023/06/25 02:07:14;;;;;;;14.82;9.95;;;;;;;;;;4791296;29;20047;-81
2023/06/25 02:09:40;;;;;;;15.63;11.18;;;;;;;;;;4791115;29;20054;-81
2023/06/25 02:12:06;;;;;;;13.73;11.18;;;;;;;;;;4776084;29;20055;-84
2023/06/25 02:14:33;;;;;;;13.48;10.63;;;;;;;;;;4761373;29;20086;-84
2023/06/25 02:16:59;;;;;;;15.90;12.18;;;;;;;;;;4761259;29;20062;-84
2023/06/25 02:19:25;;;;;;;16.58;12.45;;;;;;;;;;4776376;29;20043;-80
2023/06/25 02:21:51;;;;;;;17.92;12.18;;;;;;;;;;4775813;29;20055;-81
2023/06/25 02:24:17;;;;;;;17.65;12.90;;;;;;;;;;4775994;29;20059;-81
2023/06/25 02:26:43;;;;;;;20.52;12.85;;;17.60;99.90;;;;;;4761412;29;20063;-82
2023/06/25 02:29:09;;;;;;;20.50;12.60;;;17.40;99.90;;;;;;4775788;29;20413;-80
2023/06/25 02:31:35;;;;;;;15.27;12.02;;;;;;;;;;4790482;29;20416;-83
2023/06/25 02:34:00;;;;;;;19.92;12.18;;;17.10;99.90;;;;;;4760724;29;20519;-84
2023/06/25 02:36:26;;;;;;;14.77;12.15;;;;;;;;;;4775575;29;20047;-86
2023/06/25 02:38:53;;;;;;;15.85;12.23;;;;;;;;;;4760701;29;20049;-83
2023/06/25 02:41:19;;;;;;;14.23;11.57;;;;;;;;;;4790607;29;20057;-84
2023/06/25 02:43:44;;;;;;;13.85;11.50;;;17.50;99.90;;;;;;4790246;29;20058;-82
2023/06/25 02:46:10;;;;;;;14.20;11.88;;;;;;;;;;4775629;29;20054;-83
2023/06/25 02:48:38;;;;;;;17.35;11.43;;;17.40;99.90;;;;;;4790341;29;20055;-83
2023/06/25 02:51:04;;;;;;;17.55;10.95;;;;;;;;;;4775186;29;20051;-85
2023/06/25 02:53:29;;;;;;;14.35;11.25;;;17.50;99.90;;;;;;4806232;29;20057;-84
2023/06/25 02:55:56;;;;;;;14.27;10.48;;;;;;;;;;4790227;29;20440;-84
2023/06/25 02:58:22;;;;;;;14.45;10.45;;;;;;;;;;4775279;29;20054;-81
2023/06/25 03:00:48;;;;;;;14.27;10.30;;;17.50;99.90;;;;;;4775062;29;20067;-86
2023/06/25 03:03:13;;;;;;;14.85;9.40;;;17.70;99.90;;;;;;4760340;29;20386;-84
2023/06/25 03:05:39;;;;;;;15.00;9.77;;;;;;;;;;4760140;29;20184;-82
2023/06/25 03:08:05;;;;;;;13.07;9.80;;;17.50;99.90;;;;;;4789715;29;20054;-81
2023/06/25 03:10:33;;;;;;;13.52;9.40;;;17.30;99.90;;;;;;4789756;29;20050;-82
2023/06/25 03:12:59;;;;;;;13.48;10.48;;;;;;;;;;4760564;29;20098;-87
2023/06/25 03:15:25;;;;;;;14.65;10.32;;;;;;;;;;4805928;29;20058;-81
2023/06/25 03:17:51;;;;;;;14.60;9.80;;;17.60;99.90;;;;;;4789888;29;20510;-81
2023/06/25 03:20:17;;;;;;;16.20;10.13;;;;;;;;;;4774838;29;20091;-82
2023/06/25 03:22:43;;;;;;;14.25;10.88;;;;;;;;;;4775180;29;20053;-81
2023/06/25 03:25:09;;;;;;;17.30;10.15;;;17.60;99.90;;;;;;4760049;29;20158;-81
2023/06/25 03:27:35;;;;;;;12.70;10.38;;;;;;;;;;4789650;29;20039;-80
2023/06/25 03:30:02;;;;;;;15.45;9.18;;;;;;;;;;4774497;29;20086;-82
2023/06/25 03:32:28;;;;;;;11.50;9.15;;;;;;;;;;4789542;29;20086;-81
2023/06/25 03:34:55;;;;;;;12.43;9.35;;;;;;;;;;4774629;29;20415;-82
2023/06/25 03:37:21;;;;;;;14.98;10.05;;;;;;;;;;4789238;29;20097;-81
2023/06/25 03:39:47;;;;;;;17.50;10.02;;;;;;;;;;4789645;29;20050;-85
2023/06/25 03:42:14;;;;;;;16.30;10.70;;;;;;;;;;4789091;29;20473;-86
2023/06/25 03:44:49;;;;;;;12.27;9.02;;;17.30;99.90;;;;;;4789261;29;20050;-84
2023/06/25 03:47:15;;;;;;;12.40;8.98;;;;;;;;;;4774445;29;20055;-81
2023/06/25 03:49:42;;;;;;;11.48;9.18;;;17.50;99.90;;;;;;4789558;29;20066;-83
2023/06/25 03:52:08;;;;;;;11.20;9.25;;;;;;;;;;4774190;29;20047;-86
2023/06/25 03:54:35;;;;;;;17.17;9.88;;;;;;;;;;4789247;29;20046;-85
2023/06/25 03:57:01;;;;;;;11.90;9.95;;;;;;;;;;4774445;29;20142;-85
2023/06/25 03:59:28;;;;;;;17.20;10.68;;;17.60;99.90;;;;;;4773911;29;20054;-85
2023/06/25 04:01:54;;;;;;;19.75;10.05;;;;;;;;;;4759523;29;20053;-86
2023/06/25 04:04:19;;;;;;;13.23;9.85;;;17.60;99.90;;;;;;4788888;29;20114;-87
2023/06/25 04:06:45;;;;;;;12.95;9.75;;;;;;;;;;4774154;29;20046;-84
2023/06/25 04:09:11;;;;;;;13.63;9.63;;;;;;;;;;4789004;29;20565;-83
2023/06/25 04:11:37;;;;;;;17.25;9.98;;;;;;;;;;4759172;29;20066;-87
2023/06/25 04:14:04;;;;;;;12.70;10.20;;;;;;;;;;4773950;29;20050;-81
2023/06/25 04:16:29;;;;;;;16.13;10.50;;;17.80;99.90;;;;;;4788866;29;20057;-86
2023/06/25 04:18:55;;;;;;;19.05;10.40;;;;;;;;;;4773909;29;20051;-86
2023/06/25 04:21:21;;;;;;;12.95;9.98;;;;;;;;;;4788983;29;20060;-85
2023/06/25 04:23:47;;;;;;;14.18;10.07;;;;;;;;;;4759169;29;20138;-87
2023/06/25 04:26:13;;;;;;;13.25;9.90;;;;;;;;;;4773722;29;20516;-86
2023/06/25 04:28:40;;;;;;;19.17;11.05;;;;;;;;;;4759105;29;20564;-87
2023/06/25 04:31:06;;;;;;;13.60;10.13;;;;;;;;;;4773775;29;20454;-82
2023/06/25 04:33:34;;;;;;;12.95;9.68;;;;;;;;;;4788526;29;20047;-86
2023/06/25 04:36:00;;;;;;;15.43;10.57;;;;;;;;;;4788767;29;20057;-85
2023/06/25 04:38:26;;;;;;;15.85;10.50;;;;;;;;;;4788351;29;20047;-84
2023/06/25 04:40:52;;;;;;;15.88;9.75;;;;;;;;;;4773918;29;20137;-83
2023/06/25 04:43:18;;;;;;;13.85;10.32;;;;;;;;;;4773885;29;20512;-83
2023/06/25 04:45:44;;;;;;;16.67;10.45;;;17.90;99.90;;;;;;4773547;29;20093;-83
2023/06/25 04:48:10;;;;;;;12.10;9.98;;;17.90;99.90;;;;;;4773468;29;20082;-83
2023/06/25 04:50:36;;;;;;;14.77;10.40;;;;;;;;;;4773602;29;20111;-83
2023/06/25 04:53:02;;;;;;;19.75;10.88;;;;;;;;;;4758896;29;20051;-83
2023/06/25 04:55:29;;;;;;;12.75;9.65;;;18.20;99.90;;;;;;4775144;29;20051;-84
2023/06/25 04:57:55;;;;;;;13.70;10.40;;;;;;;;;;4792237;29;20053;-85
2023/06/25 05:00:21;;;;;;;18.63;10.65;;;17.80;99.90;;;;;;4791699;29;20063;-85
2023/06/25 05:02:47;;;;;;;17.00;10.57;;;;;;;;;;4762552;29;20067;-82
2023/06/25 05:05:13;;;;;;;14.90;10.50;;;;;;;;;;4762763;29;20090;-81
2023/06/25 05:07:39;;;;;;;13.63;9.90;;;;;;;;;;4776726;29;20093;-81
2023/06/25 05:10:05;;;;;;;16.42;10.27;;;18.20;99.90;;;;;;4776887;29;20050;-82
2023/06/25 05:12:32;;;;;;;18.30;10.38;;;;;;;;;;4776997;29;20078;-85
2023/06/25 05:14:57;;;;;;;17.33;10.80;;;18.20;99.90;;;;;;4776904;29;20111;-86
2023/06/25 05:17:23;;;;;;;17.02;10.77;;;;;;;;;;4762016;29;20141;-86
2023/06/25 05:19:49;;;;;;;17.75;10.93;;;;;;;;;;4776884;29;20043;-84
2023/06/25 05:22:15;;;;;;;17.15;9.85;;;;;;;;;;4761973;29;20055;-80
2023/06/25 05:24:41;;;;;;;13.68;10.50;;;18.50;99.90;;;;;;4776821;29;20077;-83
2023/06/25 05:27:07;;;;;;;15.32;10.63;;;18.50;99.90;;;;;;4762016;29;20472;-83
2023/06/25 05:29:32;;;;;;;19.00;10.65;;;18.50;99.90;;;;;;4776959;29;20057;-84
2023/06/25 05:31:59;;;;;;;17.58;10.32;;;18.70;99.90;;;;;;4807833;29;20058;-84
2023/06/25 05:34:24;;;;;;;13.55;9.57;;;18.60;99.90;;;;;;4777043;29;20078;-78
2023/06/25 05:36:50;;;;;;;15.50;9.98;;;;;;;;;;4776666;29;20139;-80
2023/06/25 05:39:16;;;;;;;14.82;10.60;;;19.00;99.90;;;;;;4776195;29;20058;-81
2023/06/25 05:41:42;;;;;;;16.17;10.15;;;;;;;;;;4761676;29;20043;-88
2023/06/25 05:44:08;;;;;;;17.15;9.82;;;;;;;;;;4791278;29;20562;-87
2023/06/25 05:46:34;;;;;;;18.25;9.15;;;;;;;;;;4762092;29;20099;-88
2023/06/25 05:49:01;;;;;;;14.73;9.15;;;19.00;99.90;;;;;;4776644;29;20204;-88
2023/06/25 05:51:27;;;;;;;11.88;8.40;;;19.30;99.90;;;;;;4791270;29;20058;-88
2023/06/25 05:53:54;;;;;;;11.85;7.25;;;;;;;;;;4776585;29;20073;-90
2023/06/25 05:56:20;;;;;;;15.02;8.93;;;;;;;;;;4776798;29;20066;-84
2023/06/25 05:58:46;;;;;;;10.38;7.82;;;;;;;;;;4791179;29;20070;-83
2023/06/25 06:01:12;;;;;;;13.70;9.00;;;;;;;;;;4790801;29;20063;-85
2023/06/25 06:03:38;;;;;;;15.88;8.43;;;19.70;99.90;;;;;;4790907;29;20043;-85
2023/06/25 06:06:04;;;;;;;13.13;7.80;;;;;;;;;;4790684;29;20134;-88
2023/06/25 06:08:30;;;;;;;9.93;7.40;;;;;;;;;;4776240;29;20524;-84
2023/06/25 06:10:57;;;;;;;11.43;7.78;;;;;;;;;;4776325;29;20051;-89
2023/06/25 06:13:22;;;;;;;11.90;7.03;;;19.60;99.60;;;;;;4776154;29;20047;-86
2023/06/25 06:15:48;;;;;;;11.88;7.65;;;20.10;99.40;;;;;;4761250;29;20099;-83
2023/06/25 06:18:13;;;;;;;9.00;7.30;;;20.20;99.20;;;;;;4776143;29;20062;-82
2023/06/25 06:20:40;;;;;;;9.52;6.63;;;;;;;;;;4775843;29;20441;-87
2023/06/25 06:23:05;;;;;;;7.13;5.40;;;19.90;97.70;;;;;;4776168;29;20579;-88
2023/06/25 06:25:31;;;;;;;8.63;6.35;;;;;;;;;;4761969;29;20138;-92
2023/06/25 06:27:57;;;;;;;9.23;5.95;;;20.40;96.80;;;;;;4792429;29;20058;-92
2023/06/25 06:30:23;;;;;;;11.02;5.75;;;20.30;96.20;;;;;;4777543;29;20126;-88
2023/06/25 06:32:49;;;;;;;8.88;6.05;;;;;;;;;;4792563;29;20051;-82
2023/06/25 06:35:14;;;;;;;9.40;6.03;;;20.70;95.50;;;;;;4792994;29;20416;-88
2023/06/25 06:37:41;;;;;;;7.80;6.30;;;;;;;;;;4778714;29;20046;-94
2023/06/25 06:40:07;;;;;;;7.95;6.20;;;20.90;94.70;;;;;;4778168;29;20051;-89
2023/06/25 06:42:35;;;;;;;7.72;5.55;;;20.90;92.40;;;;;;4781104;29;20051;-93
2023/06/25 06:45:02;;;;;;;11.43;6.63;;;20.90;92.30;;;;;;4794965;29;20050;-85
2023/06/25 06:47:28;;;;;;;10.85;6.43;;;;;;;;;;4764157;29;20046;-89
2023/06/25 06:49:53;;;;;;;6.80;4.80;;;20.90;93.10;;;;;;4793404;29;20070;-91
2023/06/25 06:52:23;;;;;;;7.35;5.88;;;21.00;91.90;;;;;;4792429;29;20120;-88
2023/06/25 06:54:49;;;;;;;10.10;5.93;;;21.20;92.10;;;;;;4791764;29;20435;-86
2023/06/25 06:57:15;;;;;;;9.13;7.78;;;21.40;91.50;;;;;;4792203;29;20080;-88
2023/06/25 06:59:40;;;;;;;8.13;6.50;;;21.30;91.40;;;;;;4792612;29;20078;-84
2023/06/25 07:02:06;;;;;;;10.00;6.50;;;21.20;91.20;;;;;;4777471;29;20067;-89
2023/06/25 07:04:32;;;;;;;7.57;6.10;;;;;;;;;;4792651;29;20054;-89
2023/06/25 07:06:58;;;;;;;10.98;6.63;;;;;;;;;;4791935;29;20055;-91
2023/06/25 07:09:26;;;;;;;12.88;6.80;;;21.70;90.90;;;;;;4789851;29;20463;-80
2023/06/25 07:11:52;;;;;;;9.93;7.50;;;21.60;90.40;;;;;;4806158;29;20073;-81
2023/06/25 07:14:18;;;;;;;7.35;6.57;;;21.60;90.40;;;;;;4775182;29;20047;-80
2023/06/25 07:16:44;;;;;;;10.57;7.07;;;;;;;;;;4760052;29;20118;-84
2023/06/25 07:19:10;;;;;;;9.65;7.53;;;22.00;90.30;;;;;;4789242;29;20057;-80
2023/06/25 07:21:37;;;;;;;9.13;7.07;;;21.90;90.20;;;;;;4789943;29;20058;-81
2023/06/25 07:24:02;;;;;;;8.60;7.07;;;22.10;89.80;;;;;;4775749;29;20135;-81
2023/06/25 07:26:28;;;;;;;12.38;7.05;;;22.40;88.60;;;;;;4789721;29;20569;-81
2023/06/25 07:28:54;;;;;;;10.40;7.40;;;22.20;87.90;;;;;;4774589;29;20055;-82
2023/06/25 07:31:19;;;;;;;9.18;8.18;;;22.30;85.70;;;;;;4774508;29;20055;-82
2023/06/25 07:33:45;;;;;;;8.63;7.70;;;22.40;84.50;;;;;;4774493;29;20055;-81
2023/06/25 07:36:11;;;;;;;11.93;8.63;;;22.30;86.60;;;;;;4774868;29;20069;-81
2023/06/25 07:38:36;;;;;;;10.80;9.70;;;22.60;85.20;;;;;;4774474;29;20535;-81
2023/06/25 07:41:02;;;;;;;9.02;8.23;;;22.80;82.70;;;;;;4789411;29;20241;-81
2023/06/25 07:43:28;;;;;;;8.95;8.02;;;22.60;83.90;;;;;;4775480;29;20076;-89
2023/06/25 07:45:55;;;;;;;8.38;7.57;;;;;;;;;;4790167;29;20046;-88
2023/06/25 07:48:20;;;;;;;15.75;9.15;;;22.80;78.60;;;;;;4789934;29;20096;-87
2023/06/25 07:50:46;;;;;;;8.80;7.93;;;23.20;81.60;;;;;;4789946;29;20050;-88
2023/06/25 07:53:12;;;;;;;10.45;8.00;;;23.00;80.50;;;;;;4789843;29;20055;-86
2023/06/25 07:55:40;;;;;;;9.27;7.65;;;23.20;81.50;;;;;;4774967;29;20074;-82
2023/06/25 07:58:06;;;;;;;10.82;8.95;;;23.20;79.30;;;;;;4775067;29;20051;-84
2023/06/25 08:00:33;;;;;;;10.82;8.30;;;23.30;80.20;;;;;;4789419;29;20579;-87
2023/06/25 08:02:59;;;;;;;9.52;8.23;;;23.30;78.30;;;;;;4775006;29;20054;-83
2023/06/25 08:05:24;;;;;;;10.48;8.30;;;23.40;77.50;;;;;;4774895;29;20420;-88
2023/06/25 08:07:50;;;;;;;12.50;8.90;;;23.60;78.40;;;;;;4789980;29;20132;-89
2023/06/25 08:10:16;;;;;;;10.18;7.88;;;24.00;79.20;;;;;;4759216;29;20096;-82
2023/06/25 08:12:41;;;;;;;13.68;7.72;;;23.40;77.90;;;;;;4789195;29;20051;-81
2023/06/25 08:15:07;;;;;;;10.13;8.18;;;23.80;76.00;;;;;;4773923;29;20047;-81
2023/06/25 08:17:33;;;;;;;8.82;7.93;;;24.00;77.80;;;;;;4773753;29;20114;-82
2023/06/25 08:19:59;;;;;;;10.18;8.52;;;24.00;75.30;;;;;;4789032;29;20137;-81
2023/06/25 08:22:25;;;;;;;9.75;8.07;;;24.00;74.90;;;;;;4774384;29;20516;-81
2023/06/25 08:24:50;;;;;;;10.05;8.52;;;24.20;74.70;;;;;;4759050;29;20489;-82
2023/06/25 08:27:16;;;;;;;8.85;7.78;;;24.20;72.80;;;;;;4759083;29;20061;-81
2023/06/25 08:29:42;;;;;;;9.85;8.13;;;24.40;71.80;;;;;;4788812;29;20053;-81
2023/06/25 08:32:07;;;;;;;8.80;7.90;;;24.50;71.40;;;;;;4759043;29;20539;-81
2023/06/25 08:34:33;;;;;;;10.00;8.57;;;24.60;70.80;;;;;;4788789;29;20089;-81
2023/06/25 08:36:59;;;;;;;10.50;7.57;;;24.80;70.50;;;;;;4773754;29;20084;-81
2023/06/25 08:39:24;;;;;;;12.30;8.07;;;24.70;69.70;;;;;;4789921;29;20058;-89
2023/06/25 08:41:50;;;;;;;10.25;8.73;;;24.90;68.70;;;;;;4774650;29;20055;-90
2023/06/25 08:44:16;;;;;;;7.63;6.68;;;25.00;67.30;;;;;;4774643;29;20054;-87
2023/06/25 08:46:49;;;;;;;10.95;7.63;;;24.90;65.90;;;;;;4774570;29;20108;-87
2023/06/25 08:49:16;;;;;;;8.52;7.22;;;25.20;64.10;;;;;;4789872;29;20046;-87
2023/06/25 08:51:42;;;;;;;8.43;7.43;;;25.20;63.30;;;;;;4759620;29;20054;-88
2023/06/25 08:54:08;;;;;;;9.45;8.45;;;25.30;62.90;;;;;;4759687;29;20109;-81
2023/06/25 08:56:34;;;;;;;9.45;6.25;;;25.30;62.00;;;;;;4774386;29;20054;-85
2023/06/25 08:59:00;;;;;;;6.82;6.13;;;25.40;60.50;;;;;;4774576;29;20043;-86
2023/06/25 09:01:26;;;;;;;7.40;6.65;;;25.60;59.80;;;;;;4773906;29;20066;-81
2023/06/25 09:03:52;;;;;;;7.53;6.57;;;25.70;59.00;;;;;;4773560;29;20508;-82
2023/06/25 09:06:19;;;;;;;10.13;7.65;;;25.40;58.10;;;;;;4758788;29;20046;-81
2023/06/25 09:08:45;;;;;;;6.28;5.68;;;25.80;58.00;;;;;;4773309;29;20531;-81
2023/06/25 09:11:11;;;;;;;7.43;6.50;;;25.60;58.10;;;;;;4773570;29;20133;-81
2023/06/25 09:13:38;;;;;;;9.50;7.22;;;26.00;57.80;;;;;;4773736;29;20051;-82
2023/06/25 09:16:09;;;;;;;8.98;6.28;;;26.00;56.80;;;;;;4773203;29;20054;-82
2023/06/25 09:18:36;;;;;;;8.13;6.65;;;26.00;56.20;;;;;;4788970;29;20159;-82
2023/06/25 09:21:03;;;;;;;6.93;6.20;;;26.10;55.70;;;;;;4788812;29;20090;-81
2023/06/25 09:23:30;;;;;;;6.03;5.43;;;26.20;55.50;;;;;;4789144;29;20082;-82
2023/06/25 09:25:58;;;;;;;9.40;6.38;;;26.40;55.00;;;;;;4788846;29;20055;-82
2023/06/25 09:28:25;;;;;;;10.88;6.10;;;26.30;53.40;;;;;;4774006;29;20063;-82
2023/06/25 09:30:57;;;;;;;5.90;5.35;;;24.70;51.80;;;;;;4788953;29;20129;-82
2023/06/25 09:33:33;;;;;;;8.73;6.43;;;26.60;53.00;;;;;;4788792;29;20046;-81
2023/06/25 09:36:03;;;;;;;7.90;5.55;;;26.90;51.10;;;;;;4788983;29;20111;-82
2023/06/25 09:38:30;;;;;;;9.98;5.05;;;26.70;51.00;;;;;;4788692;29;20062;-82
2023/06/25 09:41:01;;;;;;;6.35;5.68;;;26.90;52.30;;;;;;4775090;29;20055;-82
2023/06/25 09:43:28;;;;;;;8.43;5.32;;;26.90;51.60;;;;;;4762318;29;20050;-82
2023/06/25 09:45:57;;;;;;;6.72;5.78;;;27.00;51.30;;;;;;4792034;29;20128;-82
2023/06/25 09:48:26;;;;;;;10.52;5.85;;;27.10;51.50;;;;;;4792168;29;20059;-83
2023/06/25 09:50:56;;;;;;;6.15;5.55;;;27.10;51.60;;;;;;4777130;29;20050;-82
2023/06/25 09:53:25;;;;;;;5.60;5.00;;;27.40;50.90;;;;;;4777105;29;20047;-82
2023/06/25 09:55:52;;;;;;;5.20;4.70;;;27.40;49.50;;;;;;4777314;29;20054;-82
2023/06/25 09:58:19;;;;;;;5.82;5.22;;;27.50;48.80;;;;;;4762407;29;20055;-83
2023/06/25 10:00:45;;;;;;;6.85;5.82;;;27.40;48.30;;;;;;4791930;29;20115;-82
2023/06/25 10:03:17;;;;;;;8.95;5.10;;;27.60;47.90;;;;;;4777278;29;20059;-82
2023/06/25 10:05:43;;;;;;;9.90;5.05;;;27.60;47.60;;;;;;4792064;29;20053;-83
2023/06/25 10:08:10;;;;;;;5.10;4.70;;;27.80;48.40;;;;;;4791626;29;20051;-81
2023/06/25 10:10:36;;;;;;;6.47;4.80;;;27.60;47.60;;;;;;4777552;29;20420;-81
2023/06/25 10:13:03;;;;;;;5.78;5.25;;;27.80;47.00;;;;;;4761565;29;20051;-80
2023/06/25 10:15:39;;;;;;;6.78;5.85;;;27.80;46.20;;;;;;4777261;29;20046;-80
2023/06/25 10:18:06;;;;;;;8.52;5.30;;;27.70;43.70;;;;;;4776533;29;20408;-82
2023/06/25 10:20:40;;;;;;;6.57;5.13;;;28.20;46.10;;;;;;4793155;29;20058;-85
2023/06/25 10:23:09;;;;;;;;;;;28.10;44.20;;;;;;4810687;29;20038;-86
2023/06/25 10:25:36;;;;;;;10.85;5.90;;;29.00;47.40;;;;;;4777890;29;19932;-80
2023/06/25 10:28:08;;;;;;;5.32;4.80;;;28.40;46.10;;;;;;4792952;29;20485;-85
2023/06/25 10:30:39;;;;;;;5.72;5.25;;;28.10;46.10;;;;;;4811661;29;20054;-84
2023/06/25 10:33:06;;;;;;;5.57;5.07;;;28.20;46.30;;;;;;4794024;29;20107;-83
2023/06/25 10:35:42;;;;;;;13.98;5.22;;;28.60;45.90;;;;;;4779767;29;20531;-83
2023/06/25 10:38:08;;;;;;;6.45;4.75;;;28.60;44.50;;;;;;4806939;29;20476;-86
2023/06/25 10:40:39;;;;;;;5.85;4.88;;;28.80;44.40;;;;;;4776010;29;20508;-86
2023/06/25 10:43:05;;;;;;;6.43;5.32;;;28.50;43.60;;;;;;4790979;29;20378;-85
2023/06/25 10:45:31;;;;;;;5.72;4.78;;;28.80;43.60;;;;;;4807111;29;20520;-79
2023/06/25 10:48:05;;;;;;;10.13;5.43;;;29.00;43.50;;;;;;4807123;29;20092;-83
2023/06/25 10:50:33;;;;;;;;;;;29.00;43.90;;;;;;4807365;29;20095;-83
2023/06/25 10:53:00;;;;;;;5.72;4.88;;;28.90;39.50;;;;;;4806031;29;19948;-83
2023/06/25 10:55:26;;;;;;;8.15;5.13;;;28.90;42.80;;;;;;4791409;29;20180;-82
2023/06/25 10:57:55;;;;;;;10.95;4.88;;;29.20;42.90;;;;;;4776423;29;20042;-89
2023/06/25 11:00:27;;;;;;;9.32;4.75;;;28.90;41.00;;;;;;4791266;29;20072;-83
2023/06/25 11:02:54;;;;;;;8.05;4.32;;;28.80;40.80;;;;;;4788785;30;20504;-87
2023/06/25 11:05:22;;;;;;;4.80;4.38;;;29.10;40.70;;;;;;4790069;29;20074;-84
2023/06/25 11:07:54;;;;;;;9.30;5.05;;;29.30;40.90;;;;;;4788094;30;20062;-87
2023/06/25 11:10:23;;;;;;;5.35;4.07;;;29.20;41.50;;;;;;4789291;29;20054;-77
2023/06/25 11:12:52;;;;;;;4.53;4.07;;;29.40;40.20;;;;;;4788718;29;20090;-93
2023/06/25 11:15:18;;;;;;;4.78;4.22;;;29.50;41.00;;;;;;4790622;30;20050;-88
2023/06/25 11:17:51;;;;;;;5.28;3.70;;;29.60;39.30;;;;;;4774305;30;20047;-92
2023/06/25 11:20:17;;;;;;;4.75;4.28;;;29.30;38.90;;;;;;4773004;30;20485;-82
2023/06/25 11:22:44;;;;;;;5.80;4.82;;;29.40;39.70;;;;;;4787523;30;20081;-82
2023/06/25 11:25:12;;;;;;;6.50;4.72;;;29.60;39.40;;;;;;4772240;30;20062;-80
2023/06/25 11:27:38;;;;;;;5.45;4.50;;;29.70;38.90;;;;;;4772440;30;20058;-82
2023/06/25 11:30:05;;;;;;;5.13;4.18;;;29.50;39.20;;;;;;4788668;30;20043;-81
2023/06/25 11:32:30;;;;;;;3.95;3.47;;;29.70;38.20;;;;;;4797548;30;20051;-81
2023/06/25 11:34:57;;;;;;;4.05;3.08;;;29.80;38.00;;;;;;4800646;30;20123;-90
2023/06/25 11:37:23;;;;;;;4.80;3.55;;;30.00;37.30;;;;;;4799257;30;20054;-91
2023/06/25 11:39:50;;;;;;;6.57;3.58;;;29.90;36.80;;;;;;4784525;30;20051;-92
2023/06/25 11:42:22;;;;;;;4.05;3.63;;;30.20;36.00;;;;;;4794726;30;20110;-80
2023/06/25 11:45:03;;;;;;;3.55;3.08;;;30.10;35.70;;;;;;4773708;30;20055;-80
2023/06/25 11:47:29;;;;;;;5.63;3.10;;;30.10;35.80;;;;;;4772883;30;20063;-81
2023/06/25 11:49:59;;;;;;;3.20;3.00;;;30.00;34.40;;;;;;4789433;30;20055;-80
2023/06/25 11:52:25;;;;;;;3.80;2.88;;;30.20;34.70;;;;;;4787428;30;20055;-81
2023/06/25 11:54:51;;;;;;;3.45;3.00;;;30.30;34.50;;;;;;4773125;30;20061;-84
2023/06/25 11:57:17;;;;;;;3.67;3.30;;;30.30;33.70;;;;;;4773961;30;20505;-80
2023/06/25 11:59:43;;;;;;;4.47;3.33;;;30.40;33.30;;;;;;4793646;30;20043;-87
2023/06/25 12:02:10;;;;;;;4.30;3.45;;;30.10;33.70;;;;;;4792447;30;20138;-81
2023/06/25 12:04:36;;;;;;;3.72;3.40;;;30.30;33.80;;;;;;4780555;30;20059;-86
2023/06/25 12:07:03;;;;;;;3.30;3.00;;;30.20;33.40;;;;;;4793806;30;20070;-81
2023/06/25 12:09:28;;;;;;;5.95;3.53;;;30.30;32.80;;;;;;4774359;30;20055;-80
2023/06/25 12:11:55;;;;;;;3.40;3.10;;;30.30;32.70;;;;;;4793201;30;20058;-81
2023/06/25 12:14:21;;;;;;;4.15;3.50;;;30.40;32.40;;;;;;4787798;29;20409;-80
2023/06/25 12:16:47;;;;;;;4.95;3.08;;;30.60;31.30;;;;;;4786252;30;20086;-81
2023/06/25 12:19:12;;;;;;;4.35;2.97;;;30.60;31.20;;;;;;4786261;30;20090;-81
2023/06/25 12:21:38;;;;;;;4.10;3.08;;;30.70;30.30;;;;;;4756612;30;20047;-81
2023/06/25 12:24:04;;;;;;;4.38;2.90;;;30.60;30.40;;;;;;4786347;30;20044;-80
2023/06/25 12:26:30;;;;;;;5.35;3.47;;;30.80;30.10;;;;;;4771607;30;20459;-81
2023/06/25 12:28:56;;;;;;;4.60;3.85;;;30.90;30.70;;;;;;4771326;30;20104;-80
2023/06/25 12:31:22;;;;;;;7.88;3.35;;;30.80;29.30;;;;;;4786187;30;20074;-81
2023/06/25 12:33:48;;;;;;;3.80;3.40;;;30.70;29.00;;;;;;4771007;30;20134;-80
2023/06/25 12:36:14;;;;;;;3.80;2.92;;;30.90;28.40;;;;;;4785874;30;20058;-81
2023/06/25 12:38:40;;;;;;;3.58;2.95;;;30.80;28.50;;;;;;4770957;30;20079;-89
2023/06/25 12:41:05;;;;;;;3.95;3.40;;;31.20;28.80;;;;;;4787288;30;20055;-81
2023/06/25 12:43:31;;;;;;;5.30;3.45;;;31.00;28.60;;;;;;4785824;29;20078;-81
2023/06/25 12:45:57;;;;;;;7.60;3.17;;;31.00;28.40;;;;;;4786019;30;20066;-81
2023/06/25 12:48:23;;;;;;;7.20;3.83;;;31.30;28.00;;;;;;4793606;30;20047;-85
2023/06/25 12:50:48;;;;;;;3.92;3.03;;;31.10;27.60;;;;;;4775156;30;20059;-80
2023/06/25 12:53:14;;;;;;;6.10;3.45;;;31.40;27.50;;;;;;4775335;30;20130;-82
2023/06/25 12:55:40;;;;;;;4.78;4.07;;;31.40;27.20;;;;;;4778712;30;20047;-80
2023/06/25 12:58:05;;;;;;;4.13;3.78;;;31.30;26.30;;;;;;4774229;30;20181;-80
2023/06/25 13:00:31;;;;;;;5.93;3.25;;;31.20;26.50;;;;;;4788967;30;20082;-83
2023/06/25 13:02:57;;;;;;;4.57;3.92;;;31.30;26.60;;;;;;4774268;30;20055;-82
2023/06/25 13:05:22;;;;;;;4.22;3.30;;;31.50;26.00;;;;;;4782501;30;20074;-88
2023/06/25 13:07:48;;;;;;;9.07;4.25;;;31.40;25.50;;;;;;4766155;30;20176;-88
2023/06/25 13:10:14;;;;;;;3.80;3.42;;;31.30;25.10;;;;;;4765877;30;20082;-91
2023/06/25 13:12:39;;;;;;;4.72;3.78;;;31.70;25.10;;;;;;4780312;30;20059;-88